Time;durP1;ratioP1;P1;durP2;ratioP2;P2;SDS_P1;SDS_P2;PMS_P1;PMS_P2;Temp;Humidity;BMP_temperature;BMP_pressure;BME280_temperature;BME280_humidity;BME280_pressure;Samples;Min_cycle;Max_cycle;Signal;HPM_P1;HPM_P2
2021/12/08 00:01:16;;;;;;;1.55;0.43;;;4.50;99.90;;;;;;5062734;28;20484;-63
2021/12/08 00:03:44;;;;;;;1.23;0.40;;;4.60;99.90;;;;;;5055623;28;20040;-63
2021/12/08 00:06:12;;;;;;;10.43;0.85;;;4.60;99.90;;;;;;5065341;28;20052;-64
2021/12/08 00:08:46;;;;;;;3.05;0.63;;;4.60;99.90;;;;;;5063611;28;20052;-65
2021/12/08 00:14:01;;;;;;;0.73;0.20;;;4.60;99.90;;;;;;5063676;28;20037;-64
2021/12/08 00:16:29;;;;;;;3.17;0.40;;;4.60;99.90;;;;;;5060816;28;20303;-64
2021/12/08 00:18:59;;;;;;;3.65;0.70;;;4.60;99.90;;;;;;5057964;28;20408;-63
2021/12/08 00:21:28;;;;;;;4.68;0.68;;;4.60;99.90;;;;;;5064582;28;20044;-64
2021/12/08 00:23:56;;;;;;;3.33;0.55;;;4.60;99.90;;;;;;5064779;28;20048;-63
2021/12/08 00:26:23;;;;;;;2.95;0.50;;;4.60;99.90;;;;;;5065256;28;20051;-63
2021/12/08 00:28:51;;;;;;;5.68;0.60;;;4.60;99.90;;;;;;5063606;28;20048;-64
2021/12/08 00:31:19;;;;;;;1.60;0.30;;;4.60;99.90;;;;;;5062805;28;20055;-65
2021/12/08 00:33:47;;;;;;;3.25;0.40;;;4.60;99.90;;;;;;5065924;28;20071;-65
2021/12/08 00:36:17;;;;;;;7.50;0.80;;;4.70;99.90;;;;;;5066017;28;20049;-65
2021/12/08 00:38:45;;;;;;;;;;;4.70;99.90;;;;;;5062964;28;20040;-64
2021/12/08 00:41:13;;;;;;;4.35;0.75;;;4.70;99.90;;;;;;5064730;28;19921;-62
2021/12/08 00:43:42;;;;;;;4.97;1.17;;;4.60;99.90;;;;;;5064516;28;20067;-62
2021/12/08 00:46:10;;;;;;;2.22;0.35;;;4.70;99.90;;;;;;5064797;28;20048;-65
2021/12/08 00:48:40;;;;;;;5.15;0.80;;;4.60;99.90;;;;;;5058808;28;20697;-63
2021/12/08 00:51:08;;;;;;;5.30;0.40;;;4.70;99.90;;;;;;5064425;28;20052;-63
2021/12/08 00:53:36;;;;;;;7.85;0.82;;;4.70;99.90;;;;;;5056269;28;20051;-63
2021/12/08 00:56:05;;;;;;;6.43;0.95;;;4.70;99.90;;;;;;5067594;28;20052;-63
2021/12/08 00:58:32;;;;;;;4.45;0.57;;;4.70;99.90;;;;;;5067752;28;20052;-63
2021/12/08 01:01:00;;;;;;;8.20;1.23;;;4.70;99.90;;;;;;5072353;28;20041;-63
2021/12/08 01:03:28;;;;;;;5.88;0.45;;;4.70;99.90;;;;;;5065470;28;20404;-64
2021/12/08 01:05:57;;;;;;;6.50;0.90;;;4.70;99.90;;;;;;5077281;28;20071;-63
2021/12/08 01:08:28;;;;;;;5.80;0.88;;;4.70;99.90;;;;;;5081423;28;20056;-66
2021/12/08 01:11:00;;;;;;;7.40;0.50;;;4.70;99.90;;;;;;5072168;28;20056;-67
2021/12/08 01:13:28;;;;;;;5.53;0.80;;;4.70;99.90;;;;;;5071115;28;20040;-66
2021/12/08 01:15:57;;;;;;;2.30;0.80;;;4.70;99.90;;;;;;5071686;28;20044;-65
2021/12/08 01:18:26;;;;;;;;;;;4.70;99.90;;;;;;5064454;28;20048;-66
2021/12/08 01:20:56;;;;;;;6.05;1.05;;;4.80;99.90;;;;;;5071784;28;19920;-66
2021/12/08 01:23:24;;;;;;;;;;;4.70;99.90;;;;;;5072357;28;20040;-66
2021/12/08 01:25:53;;;;;;;7.43;1.73;;;4.70;99.90;;;;;;5071672;28;19920;-66
2021/12/08 01:28:23;;;;;;;8.88;0.93;;;4.70;99.90;;;;;;5071714;28;20478;-66
2021/12/08 01:30:53;;;;;;;6.43;1.25;;;4.70;99.90;;;;;;5068500;28;20056;-68
2021/12/08 01:33:23;;;;;;;5.88;0.50;;;4.70;99.90;;;;;;5061879;28;20051;-64
2021/12/08 01:35:52;;;;;;;7.22;1.08;;;4.60;99.90;;;;;;5062541;28;20381;-63
2021/12/08 01:38:21;;;;;;;6.45;0.98;;;4.60;99.90;;;;;;5051416;28;20307;-65
2021/12/08 01:40:48;;;;;;;4.03;0.50;;;4.60;99.90;;;;;;5071448;28;20052;-66
2021/12/08 01:43:28;;;;;;;4.90;0.70;;;4.60;99.90;;;;;;5071542;28;20211;-65
2021/12/08 01:46:04;;;;;;;5.47;0.77;;;4.60;99.90;;;;;;5069808;28;20048;-65
2021/12/08 02:20:52;;;;;;;3.17;0.15;;;4.20;99.90;;;;;;5064243;28;20412;-65
2021/12/08 02:23:20;;;;;;;0.38;0.10;;;4.10;99.90;;;;;;5070726;28;20051;-66
2021/12/08 02:25:49;;;;;;;1.85;0.10;;;4.00;99.90;;;;;;5070318;28;20408;-64
2021/12/08 02:28:17;;;;;;;0.38;0.20;;;4.00;99.90;;;;;;5069080;28;20044;-64
2021/12/08 02:30:54;;;;;;;0.35;0.10;;;3.90;99.90;;;;;;5064292;28;20041;-64
2021/12/08 02:47:52;;;;;;;0.08;0.00;;;3.60;99.90;;;;;;5069261;28;20045;-65
2021/12/08 02:50:26;;;;;;;0.30;0.03;;;3.70;99.90;;;;;;5067003;28;20040;-63
2021/12/08 02:52:55;;;;;;;1.10;0.10;;;3.60;99.90;;;;;;5072363;28;20063;-61
2021/12/08 02:55:26;;;;;;;0.52;0.10;;;3.60;99.90;;;;;;5073634;28;20045;-61
2021/12/08 02:57:55;;;;;;;0.98;0.10;;;3.60;99.90;;;;;;5072787;28;20048;-63
2021/12/08 03:00:26;;;;;;;1.42;0.00;;;3.60;99.90;;;;;;5073325;28;20071;-64
2021/12/08 03:02:56;;;;;;;0.85;0.08;;;3.60;99.90;;;;;;5078811;28;20647;-64
2021/12/08 03:05:25;;;;;;;1.88;0.13;;;3.70;99.90;;;;;;5073976;28;20629;-64
2021/12/08 03:07:53;;;;;;;3.78;0.30;;;3.70;99.90;;;;;;5074552;28;20504;-67
2021/12/08 03:10:24;;;;;;;3.10;0.25;;;3.70;99.90;;;;;;5073102;28;20040;-68
2021/12/08 03:12:52;;;;;;;1.80;0.10;;;3.70;99.90;;;;;;5073001;28;20048;-64
2021/12/08 03:15:20;;;;;;;2.40;0.22;;;3.70;99.90;;;;;;5073236;28;20419;-64
2021/12/08 03:17:48;;;;;;;1.52;0.10;;;3.70;99.90;;;;;;5072700;28;20049;-64
2021/12/08 03:20:27;;;;;;;0.57;0.05;;;3.70;99.90;;;;;;5072784;28;20036;-63
2021/12/08 03:23:01;;;;;;;1.13;0.17;;;3.70;99.90;;;;;;5072098;28;20056;-63
2021/12/08 03:25:35;;;;;;;1.42;0.40;;;3.70;99.90;;;;;;5072966;28;20051;-67
2021/12/08 03:28:13;;;;;;;3.10;0.35;;;3.70;99.90;;;;;;5072629;28;20048;-67
2021/12/08 03:30:53;;;;;;;3.38;0.30;;;3.80;99.90;;;;;;5051822;28;20048;-66
2021/12/08 03:33:21;;;;;;;0.40;0.20;;;3.80;99.90;;;;;;5055091;28;20396;-62
2021/12/08 03:35:50;;;;;;;2.70;0.40;;;3.80;99.90;;;;;;5072644;28;20041;-63
2021/12/08 03:38:19;;;;;;;2.58;0.30;;;3.80;99.90;;;;;;5072632;28;20052;-62
2021/12/08 03:40:48;;;;;;;8.73;0.90;;;3.90;99.90;;;;;;5072425;28;20047;-62
2021/12/08 03:43:16;;;;;;;4.88;0.90;;;3.90;99.90;;;;;;5072077;28;20056;-62
2021/12/08 03:45:47;;;;;;;6.63;0.50;;;3.90;99.90;;;;;;5072570;28;20051;-64
2021/12/08 03:48:23;;;;;;;3.80;0.43;;;4.00;99.90;;;;;;5074759;28;20056;-61
2021/12/08 03:50:52;;;;;;;3.38;0.28;;;4.00;99.90;;;;;;5074513;28;20399;-62
2021/12/08 03:53:19;;;;;;;6.85;0.60;;;4.10;99.90;;;;;;5072361;28;20053;-61
2021/12/08 03:55:50;;;;;;;7.90;1.02;;;4.10;99.90;;;;;;5072473;28;20051;-61
2021/12/08 03:58:18;;;;;;;4.68;0.40;;;4.10;99.90;;;;;;5068765;28;20060;-63
2021/12/08 04:00:49;;;;;;;5.45;0.77;;;4.10;99.90;;;;;;5072463;28;20044;-62
2021/12/08 04:03:18;;;;;;;9.13;0.82;;;4.20;99.90;;;;;;5071105;28;20492;-61
2021/12/08 04:05:54;;;;;;;4.65;0.70;;;4.20;99.90;;;;;;5054288;28;20408;-62
2021/12/08 04:08:38;;;;;;;7.53;0.80;;;4.20;99.90;;;;;;5078342;28;20039;-64
2021/12/08 04:11:08;;;;;;;5.15;0.57;;;4.30;99.90;;;;;;5092719;28;20387;-63
2021/12/08 04:13:48;;;;;;;12.60;2.38;;;4.30;99.90;;;;;;5092503;28;20044;-63
2021/12/08 04:16:21;;;;;;;21.45;1.63;;;4.40;99.90;;;;;;5080329;28;20041;-63
2021/12/08 04:18:49;;;;;;;5.43;0.63;;;4.40;99.90;;;;;;5071890;28;20381;-61
2021/12/08 04:21:18;;;;;;;7.28;1.30;;;4.30;99.90;;;;;;5071720;28;20052;-62
2021/12/08 04:23:47;;;;;;;3.47;0.90;;;4.40;99.90;;;;;;5071795;28;20044;-61
2021/12/08 04:26:21;;;;;;;12.30;1.08;;;4.40;99.90;;;;;;5071721;28;20040;-61
2021/12/08 04:28:50;;;;;;;8.77;0.95;;;4.40;99.90;;;;;;5071913;28;20055;-61
2021/12/08 04:31:22;;;;;;;13.60;0.98;;;4.50;99.90;;;;;;5071758;28;20044;-63
2021/12/08 04:33:55;;;;;;;9.25;1.77;;;4.50;99.90;;;;;;5070236;28;20055;-62
2021/12/08 04:36:32;;;;;;;8.05;0.80;;;4.50;99.90;;;;;;5069834;28;20049;-63
2021/12/08 04:39:04;;;;;;;10.80;0.85;;;4.50;99.90;;;;;;5096639;28;20049;-61
2021/12/08 04:41:39;;;;;;;13.68;1.20;;;4.50;99.90;;;;;;5071210;28;20043;-63
2021/12/08 04:44:24;;;;;;;11.32;1.80;;;4.50;99.90;;;;;;5071713;28;20368;-61
2021/12/08 04:47:17;;;;;;;9.68;1.05;;;4.50;99.90;;;;;;5071202;28;20044;-61
2021/12/08 04:53:11;;;;;;;12.15;0.98;;;4.50;99.90;;;;;;5071280;28;20044;-63
2021/12/08 05:01:30;;;;;;;11.30;1.27;;;4.50;99.90;;;;;;5091628;28;20153;-62
2021/12/08 05:04:23;;;;;;;4.18;1.27;;;4.50;99.90;;;;;;5090040;28;20491;-62
2021/12/08 05:09:48;;;;;;;2.65;0.95;;;4.40;99.90;;;;;;5050559;28;20082;-62
2021/12/08 05:12:25;;;;;;;6.13;0.80;;;4.40;99.90;;;;;;5071079;28;20435;-62
2021/12/08 05:15:01;;;;;;;3.83;0.52;;;4.40;99.90;;;;;;5071391;28;20044;-61
2021/12/08 05:17:34;;;;;;;8.15;1.75;;;4.40;99.90;;;;;;5071434;28;20048;-62
2021/12/08 05:20:11;;;;;;;3.13;0.60;;;4.40;99.90;;;;;;5071344;28;20052;-62
2021/12/08 05:22:44;;;;;;;5.20;0.60;;;4.40;99.90;;;;;;5071035;28;20392;-61
2021/12/08 05:25:19;;;;;;;6.32;0.70;;;4.40;99.90;;;;;;5070785;28;20041;-61
2021/12/08 05:27:51;;;;;;;5.45;0.88;;;4.40;99.90;;;;;;5071339;28;20047;-64
2021/12/08 05:30:31;;;;;;;4.53;1.08;;;4.30;99.90;;;;;;5071258;28;20094;-61
2021/12/08 05:33:00;;;;;;;6.40;0.80;;;4.30;99.90;;;;;;5071160;28;20174;-62
2021/12/08 05:35:29;;;;;;;2.15;0.32;;;4.30;99.90;;;;;;5070504;28;20049;-61
2021/12/08 05:37:58;;;;;;;3.25;0.50;;;4.20;99.90;;;;;;5071177;28;20045;-64
2021/12/08 05:40:32;;;;;;;3.97;0.43;;;4.20;99.90;;;;;;5071187;28;20045;-64
2021/12/08 05:43:00;;;;;;;2.22;0.32;;;4.20;99.90;;;;;;5070897;28;20041;-64
2021/12/08 05:45:28;;;;;;;7.93;0.63;;;4.10;99.90;;;;;;5081215;28;20071;-65
2021/12/08 05:47:56;;;;;;;1.75;0.10;;;4.00;99.90;;;;;;5063961;28;20048;-65
2021/12/08 05:51:07;;;;;;;1.23;0.20;;;4.00;99.90;;;;;;5056877;28;20048;-66
2021/12/08 05:53:38;;;;;;;1.45;0.45;;;3.90;99.90;;;;;;5049996;28;20488;-66
2021/12/08 05:56:07;;;;;;;1.55;0.20;;;3.80;99.90;;;;;;5051233;28;20045;-62
2021/12/08 05:58:36;;;;;;;0.50;0.20;;;3.70;99.90;;;;;;5066816;28;20348;-65
2021/12/08 06:01:18;;;;;;;1.27;0.10;;;3.70;99.90;;;;;;5072084;28;20049;-65
2021/12/08 06:03:49;;;;;;;2.72;0.13;;;3.70;99.90;;;;;;5052437;28;20472;-67
2021/12/08 06:06:21;;;;;;;2.60;0.30;;;3.60;99.90;;;;;;5068085;28;20049;-65
2021/12/08 06:08:51;;;;;;;0.17;0.10;;;3.50;99.90;;;;;;5069606;28;20087;-66
2021/12/08 06:11:25;;;;;;;1.95;0.10;;;3.50;99.90;;;;;;5071250;28;20056;-66
2021/12/08 06:13:59;;;;;;;0.52;0.08;;;3.50;99.90;;;;;;5070255;28;20059;-66
2021/12/08 06:16:31;;;;;;;2.15;0.30;;;3.40;99.90;;;;;;5070537;28;20032;-66
2021/12/08 06:18:59;;;;;;;0.85;0.10;;;3.50;99.90;;;;;;5078488;28;20068;-63
2021/12/08 06:21:29;;;;;;;1.13;0.30;;;3.40;99.90;;;;;;5091335;28;20040;-61
2021/12/08 06:23:57;;;;;;;;;;;3.40;99.90;;;;;;5071519;28;20064;-62
2021/12/08 06:26:26;;;;;;;1.35;0.10;;;3.40;99.90;;;;;;5070354;28;19931;-62
2021/12/08 06:28:55;;;;;;;1.08;0.10;;;3.40;99.90;;;;;;5070589;28;20045;-62
2021/12/08 06:31:26;;;;;;;2.00;0.20;;;3.40;99.90;;;;;;5062511;28;20044;-62
2021/12/08 06:33:55;;;;;;;2.25;0.43;;;3.30;99.90;;;;;;5065647;28;20060;-66
2021/12/08 06:36:29;;;;;;;1.10;0.10;;;3.30;99.90;;;;;;5067118;28;20055;-65
2021/12/08 06:38:58;;;;;;;0.50;0.30;;;3.30;99.90;;;;;;5066840;28;20040;-66
2021/12/08 06:41:34;;;;;;;1.67;0.30;;;3.30;99.90;;;;;;5083548;28;20044;-66
2021/12/08 06:44:09;;;;;;;1.38;0.30;;;3.20;99.90;;;;;;5070251;28;20047;-67
2021/12/08 06:46:38;;;;;;;1.85;0.20;;;3.30;99.90;;;;;;5068975;28;20516;-65
2021/12/08 06:49:09;;;;;;;4.22;0.25;;;3.20;99.90;;;;;;5055225;28;20052;-68
2021/12/08 06:51:42;;;;;;;1.15;0.40;;;3.20;99.90;;;;;;5054146;28;20519;-67
2021/12/08 06:54:29;;;;;;;3.60;0.55;;;3.20;99.90;;;;;;5065195;28;20052;-64
2021/12/08 06:57:04;;;;;;;1.02;0.20;;;3.30;99.90;;;;;;5067869;28;20488;-65
2021/12/08 06:59:50;;;;;;;0.70;0.20;;;3.30;99.90;;;;;;5048885;28;20049;-67
2021/12/08 07:02:36;;;;;;;1.10;0.32;;;3.30;99.90;;;;;;5053907;28;20047;-63
2021/12/08 07:07:33;;;;;;;1.33;0.40;;;3.30;99.90;;;;;;5068190;28;20055;-62
2021/12/08 07:10:11;;;;;;;3.60;0.50;;;3.30;99.90;;;;;;5069177;28;20044;-62
2021/12/08 07:12:44;;;;;;;3.38;0.38;;;3.30;99.90;;;;;;5065854;28;20079;-61
2021/12/08 07:15:21;;;;;;;2.83;0.60;;;3.40;99.90;;;;;;5067039;28;20048;-62
2021/12/08 07:17:53;;;;;;;5.13;0.52;;;3.40;99.90;;;;;;5069469;28;20036;-62
2021/12/08 07:23:22;;;;;;;6.15;0.55;;;3.50;99.90;;;;;;5069266;28;20044;-63
2021/12/08 07:25:52;;;;;;;4.22;0.40;;;3.50;99.90;;;;;;5051949;28;20400;-63
2021/12/08 07:28:22;;;;;;;2.95;0.60;;;3.50;99.90;;;;;;5071578;28;20044;-62
2021/12/08 07:30:59;;;;;;;3.95;0.45;;;3.60;99.90;;;;;;5069283;28;20056;-64
2021/12/08 07:33:27;;;;;;;5.55;0.47;;;3.60;99.90;;;;;;5070468;28;20388;-62
2021/12/08 07:35:59;;;;;;;4.32;0.70;;;3.60;99.90;;;;;;5054417;28;20048;-63
2021/12/08 07:38:30;;;;;;;2.63;0.47;;;3.70;99.90;;;;;;5069026;28;20052;-61
2021/12/08 07:41:10;;;;;;;5.95;0.65;;;3.70;99.90;;;;;;5068066;28;20329;-63
2021/12/08 07:43:42;;;;;;;4.28;0.70;;;3.70;99.90;;;;;;5064101;28;20045;-63
2021/12/08 07:46:15;;;;;;;5.10;0.40;;;3.70;99.90;;;;;;5066250;28;20041;-62
2021/12/08 07:48:50;;;;;;;3.42;0.30;;;3.80;99.90;;;;;;5059294;28;20051;-61
2021/12/08 07:51:22;;;;;;;3.10;0.30;;;3.80;99.90;;;;;;5062792;28;20396;-62
2021/12/08 07:53:50;;;;;;;2.83;0.32;;;3.80;99.90;;;;;;5068026;28;20507;-63
2021/12/08 07:56:21;;;;;;;3.65;0.80;;;3.90;99.90;;;;;;5067800;28;20044;-62
2021/12/08 07:58:56;;;;;;;1.25;0.30;;;3.90;99.90;;;;;;5066831;28;20048;-65
2021/12/08 08:01:28;;;;;;;2.78;0.80;;;3.90;99.90;;;;;;5066676;28;20396;-61
2021/12/08 08:03:57;;;;;;;4.35;0.50;;;4.00;99.90;;;;;;5058900;28;20403;-61
2021/12/08 08:06:33;;;;;;;3.70;0.73;;;4.00;99.90;;;;;;5065526;28;20045;-62
2021/12/08 08:09:08;;;;;;;3.35;0.52;;;4.00;99.90;;;;;;5057513;28;20511;-62
2021/12/08 08:11:42;;;;;;;3.38;0.63;;;4.10;99.90;;;;;;5047304;28;20060;-62
2021/12/08 08:14:12;;;;;;;3.28;0.52;;;4.10;99.90;;;;;;5048954;28;20056;-61
2021/12/08 08:16:40;;;;;;;5.88;0.60;;;4.10;99.90;;;;;;5054376;28;20051;-62
2021/12/08 08:19:12;;;;;;;4.05;0.43;;;4.20;99.90;;;;;;5065201;28;20055;-62
2021/12/08 08:21:45;;;;;;;2.08;0.40;;;4.20;99.90;;;;;;5068531;28;20047;-63
2021/12/08 08:24:14;;;;;;;6.30;0.60;;;4.20;99.90;;;;;;5067973;28;20059;-61
2021/12/08 08:26:45;;;;;;;1.23;0.40;;;4.20;99.90;;;;;;5066469;28;20056;-62
2021/12/08 08:29:13;;;;;;;3.65;0.30;;;4.30;99.90;;;;;;5057114;28;20052;-62
2021/12/08 08:31:46;;;;;;;2.03;0.22;;;4.30;99.90;;;;;;5055037;28;20036;-63
2021/12/08 08:34:15;;;;;;;2.15;0.77;;;4.30;99.90;;;;;;5056225;28;20052;-62
2021/12/08 08:36:46;;;;;;;5.45;0.57;;;4.30;99.90;;;;;;5048411;28;20055;-64
2021/12/08 08:39:24;;;;;;;3.75;0.63;;;4.30;99.90;;;;;;5064353;28;20201;-62
2021/12/08 08:42:05;;;;;;;1.60;0.60;;;4.40;99.90;;;;;;5061040;28;20484;-62
2021/12/08 08:45:05;;;;;;;4.18;0.70;;;4.40;99.90;;;;;;5062333;28;20043;-62
2021/12/08 08:47:43;;;;;;;;;;;4.40;99.90;;;;;;5061630;28;20052;-62
2021/12/08 08:50:23;;;;;;;12.02;0.80;;;4.50;99.90;;;;;;5065860;28;19920;-61
2021/12/08 08:52:55;;;;;;;1.05;0.30;;;4.50;99.90;;;;;;5057986;28;20063;-61
2021/12/08 08:55:48;;;;;;;2.65;0.30;;;4.50;99.90;;;;;;5084218;28;20048;-61
2021/12/08 08:58:20;;;;;;;5.28;0.77;;;4.50;99.90;;;;;;5068019;28;20239;-63
2021/12/08 09:00:59;;;;;;;1.77;0.40;;;4.50;99.90;;;;;;5066612;28;20048;-63
2021/12/08 09:03:32;;;;;;;1.48;0.65;;;4.60;99.90;;;;;;5064433;28;20044;-63
2021/12/08 09:06:14;;;;;;;1.55;0.32;;;4.60;99.90;;;;;;5064386;28;20045;-63
2021/12/08 09:08:43;;;;;;;4.22;0.60;;;4.60;99.90;;;;;;5059015;28;20045;-63
2021/12/08 09:11:15;;;;;;;0.57;0.40;;;4.60;99.90;;;;;;5055191;28;20384;-62
2021/12/08 09:14:00;;;;;;;2.53;0.25;;;4.60;99.90;;;;;;5069529;28;20044;-63
2021/12/08 09:16:33;;;;;;;1.52;0.55;;;4.70;99.90;;;;;;5054013;28;20052;-63
2021/12/08 09:19:10;;;;;;;4.85;0.45;;;4.70;99.90;;;;;;5051519;28;20045;-63
2021/12/08 09:21:38;;;;;;;5.35;0.47;;;4.70;99.90;;;;;;5069943;28;20053;-63
2021/12/08 09:24:18;;;;;;;1.67;0.22;;;4.70;99.90;;;;;;5064086;28;20053;-63
2021/12/08 09:26:51;;;;;;;2.35;0.30;;;4.80;99.90;;;;;;5058486;28;20047;-64
2021/12/08 09:29:23;;;;;;;2.03;0.25;;;4.80;99.90;;;;;;5077542;28;20032;-61
2021/12/08 09:32:04;;;;;;;2.40;0.68;;;4.80;99.90;;;;;;5075282;28;20056;-62
2021/12/08 09:34:43;;;;;;;5.43;0.50;;;4.80;99.90;;;;;;5075094;28;20047;-65
2021/12/08 09:37:15;;;;;;;4.05;0.55;;;4.80;99.90;;;;;;5071228;28;20051;-64
2021/12/08 09:39:51;;;;;;;1.60;0.30;;;4.90;99.90;;;;;;5069968;28;20049;-63
2021/12/08 09:42:26;;;;;;;0.10;0.10;;;4.90;99.90;;;;;;5067877;28;20063;-63
2021/12/08 09:45:03;;;;;;;1.50;0.70;;;4.90;99.90;;;;;;5075433;28;20050;-63
2021/12/08 09:47:31;;;;;;;9.20;5.45;;;4.90;99.90;;;;;;5067176;28;20527;-62
2021/12/08 09:50:03;;;;;;;1.83;1.45;;;4.90;99.90;;;;;;5072067;28;20041;-64
2021/12/08 09:52:33;;;;;;;2.08;0.93;;;4.90;99.90;;;;;;5094286;28;20036;-65
2021/12/08 09:55:03;;;;;;;1.92;0.68;;;4.90;99.90;;;;;;5051206;28;20048;-65
2021/12/08 09:57:33;;;;;;;7.63;3.92;;;4.90;99.90;;;;;;5057842;28;20400;-65
2021/12/08 10:00:03;;;;;;;3.85;2.38;;;4.90;99.90;;;;;;5078729;28;20444;-65
2021/12/08 10:02:36;;;;;;;1.48;0.80;;;4.90;99.90;;;;;;5057458;28;20045;-63
2021/12/08 10:05:13;;;;;;;3.33;1.30;;;4.90;99.90;;;;;;5054250;28;20052;-64
2021/12/08 10:07:43;;;;;;;3.75;1.17;;;4.90;99.90;;;;;;5071279;28;20044;-63
2021/12/08 10:10:14;;;;;;;0.80;0.35;;;4.90;99.90;;;;;;5068807;28;20052;-65
2021/12/08 10:12:42;;;;;;;3.40;0.85;;;4.90;99.90;;;;;;5064215;28;20029;-66
2021/12/08 10:15:14;;;;;;;0.45;0.20;;;4.90;99.90;;;;;;5069094;28;20443;-67
2021/12/08 10:17:42;;;;;;;1.45;0.70;;;4.90;99.90;;;;;;5069421;28;20044;-65
2021/12/08 10:20:20;;;;;;;1.25;0.60;;;4.90;99.90;;;;;;5057246;28;20052;-61
2021/12/08 10:23:08;;;;;;;7.40;1.77;;;4.90;99.90;;;;;;5058386;28;20059;-61
2021/12/08 10:25:44;;;;;;;3.25;0.43;;;4.90;99.90;;;;;;5057301;28;20048;-61
2021/12/08 10:28:21;;;;;;;3.08;0.40;;;4.90;99.90;;;;;;5075118;28;20047;-61
2021/12/08 10:30:54;;;;;;;0.50;0.20;;;4.90;99.90;;;;;;5073863;28;20063;-61
2021/12/08 10:33:54;;;;;;;2.88;0.30;;;4.90;99.90;;;;;;5070415;28;20048;-61
2021/12/08 10:36:47;;;;;;;3.13;0.32;;;4.90;99.90;;;;;;5068828;28;20389;-63
2021/12/08 10:39:45;;;;;;;3.55;0.43;;;4.90;99.90;;;;;;5065041;28;20053;-64
2021/12/08 10:42:31;;;;;;;3.92;0.20;;;5.00;99.90;;;;;;5067142;28;20888;-66
2021/12/08 10:45:23;;;;;;;2.20;0.50;;;5.00;99.90;;;;;;5086264;28;20044;-66
2021/12/08 10:47:55;;;;;;;0.52;0.20;;;5.10;99.90;;;;;;5048451;28;20508;-66
2021/12/08 10:56:16;;;;;;;1.00;0.20;;;5.20;99.90;;;;;;5067034;28;20052;-65
2021/12/08 10:58:49;;;;;;;2.60;0.30;;;5.30;99.90;;;;;;5068682;28;20059;-64
2021/12/08 11:01:20;;;;;;;1.02;0.20;;;5.30;99.90;;;;;;5087131;28;20048;-63
2021/12/08 11:03:58;;;;;;;0.32;0.15;;;5.40;99.90;;;;;;5065910;28;20060;-63
2021/12/08 11:06:30;;;;;;;3.65;0.75;;;5.50;99.90;;;;;;5067116;28;20510;-66
2021/12/08 11:08:57;;;;;;;2.10;0.52;;;5.60;99.90;;;;;;5065359;28;20064;-65
2021/12/08 11:11:30;;;;;;;2.83;0.38;;;5.70;99.90;;;;;;5064969;28;20423;-65
2021/12/08 11:14:04;;;;;;;2.03;0.28;;;5.70;99.90;;;;;;5066318;28;20033;-64
2021/12/08 11:16:35;;;;;;;0.35;0.05;;;5.70;99.90;;;;;;5053239;28;20048;-63
2021/12/08 11:19:09;;;;;;;0.28;0.20;;;5.80;99.90;;;;;;5069388;28;20411;-66
2021/12/08 11:21:40;;;;;;;2.08;0.03;;;5.80;99.90;;;;;;5061773;28;20047;-66
2021/12/08 11:24:20;;;;;;;0.70;0.20;;;5.80;99.90;;;;;;5068629;28;20053;-67
2021/12/08 11:26:51;;;;;;;1.10;0.30;;;5.90;99.90;;;;;;5066403;28;20044;-67
2021/12/08 11:29:23;;;;;;;1.60;0.20;;;5.90;99.90;;;;;;5062932;28;20052;-67
2021/12/08 11:31:51;;;;;;;2.63;0.30;;;6.00;99.90;;;;;;5067862;28;20039;-66
2021/12/08 11:34:27;;;;;;;0.63;0.20;;;5.90;99.90;;;;;;5065623;28;20044;-67
2021/12/08 11:37:02;;;;;;;0.93;0.20;;;6.00;99.90;;;;;;5063529;28;20048;-67
2021/12/08 11:39:31;;;;;;;1.23;0.20;;;6.00;99.90;;;;;;5068611;28;20048;-63
2021/12/08 11:42:06;;;;;;;3.70;0.10;;;6.10;99.90;;;;;;5069193;28;20053;-68
2021/12/08 11:44:38;;;;;;;4.90;0.40;;;6.00;99.90;;;;;;5066506;28;20032;-68
2021/12/08 11:47:12;;;;;;;1.73;0.22;;;6.00;99.90;;;;;;5068138;28;20439;-68
2021/12/08 11:49:46;;;;;;;0.82;0.30;;;6.10;99.90;;;;;;5050488;28;20686;-67
2021/12/08 11:52:19;;;;;;;2.13;0.10;;;6.00;99.90;;;;;;5060217;28;20049;-67
2021/12/08 11:54:56;;;;;;;0.40;0.20;;;6.00;99.90;;;;;;5068474;28;20056;-64
2021/12/08 11:57:33;;;;;;;1.67;0.20;;;6.00;99.90;;;;;;5068356;28;20052;-64
2021/12/08 12:00:15;;;;;;;0.25;0.05;;;6.00;99.90;;;;;;5068136;28;20056;-65
2021/12/08 12:02:46;;;;;;;0.73;0.00;;;6.00;99.90;;;;;;5068484;28;20416;-66
2021/12/08 12:05:18;;;;;;;3.15;0.25;;;6.00;99.90;;;;;;5064607;28;20037;-64
2021/12/08 12:07:46;;;;;;;2.22;0.20;;;6.00;99.90;;;;;;5052550;28;20495;-67
2021/12/08 12:10:19;;;;;;;0.63;0.40;;;6.00;99.90;;;;;;5067811;28;20485;-67
2021/12/08 12:12:53;;;;;;;1.40;0.35;;;6.00;99.90;;;;;;5067515;28;20408;-68
2021/12/08 12:15:22;;;;;;;1.48;0.32;;;6.00;99.90;;;;;;5060347;28;20393;-69
2021/12/08 12:17:51;;;;;;;0.47;0.20;;;6.00;99.90;;;;;;5053137;28;20052;-64
2021/12/08 12:20:24;;;;;;;0.30;0.30;;;6.00;99.90;;;;;;5067925;28;20481;-64
2021/12/08 12:23:01;;;;;;;1.13;0.50;;;6.00;99.90;;;;;;5068070;28;20048;-64
2021/12/08 12:25:48;;;;;;;1.10;0.20;;;6.00;99.90;;;;;;5067805;28;20060;-63
2021/12/08 12:28:53;;;;;;;1.77;0.22;;;6.00;99.90;;;;;;5056579;28;20401;-63
2021/12/08 12:31:36;;;;;;;1.00;0.30;;;5.90;99.90;;;;;;5061209;28;20037;-64
2021/12/08 12:34:22;;;;;;;1.58;0.20;;;5.90;99.90;;;;;;5065934;28;20052;-63
2021/12/08 12:36:50;;;;;;;2.83;0.30;;;5.90;99.90;;;;;;5067781;28;20055;-62
2021/12/08 12:39:21;;;;;;;1.83;0.10;;;6.00;99.90;;;;;;5066384;28;20049;-62
2021/12/08 12:42:23;;;;;;;1.00;0.30;;;6.00;99.90;;;;;;5068032;28;20635;-65
2021/12/08 12:44:56;;;;;;;2.10;0.30;;;6.00;99.90;;;;;;5029922;28;20060;-62
2021/12/08 12:47:27;;;;;;;3.78;1.02;;;6.10;99.90;;;;;;5049588;28;20087;-63
2021/12/08 12:50:09;;;;;;;0.40;0.20;;;6.20;99.90;;;;;;5068350;28;20048;-66
2021/12/08 12:52:55;;;;;;;2.72;0.28;;;6.30;99.90;;;;;;5067431;28;20045;-63
2021/12/08 12:55:32;;;;;;;0.80;0.10;;;6.30;99.90;;;;;;5066632;28;20048;-62
2021/12/08 12:58:05;;;;;;;0.90;0.10;;;6.40;99.90;;;;;;5066553;28;20056;-63
2021/12/08 13:00:35;;;;;;;4.53;0.28;;;6.50;99.90;;;;;;5062801;28;20048;-62
2021/12/08 13:03:04;;;;;;;1.60;0.30;;;6.50;99.90;;;;;;5056857;28;20048;-63
2021/12/08 13:05:45;;;;;;;1.70;0.35;;;6.50;99.90;;;;;;5060507;28;20060;-62
2021/12/08 13:08:30;;;;;;;2.80;0.47;;;6.60;99.90;;;;;;5063293;28;20040;-62
2021/12/08 13:11:00;;;;;;;4.07;0.50;;;6.60;99.90;;;;;;5064719;28;20041;-60
2021/12/08 13:13:43;;;;;;;3.58;0.40;;;6.60;99.90;;;;;;5061830;28;20037;-61
2021/12/08 13:16:33;;;;;;;1.20;0.38;;;6.50;99.90;;;;;;5064580;28;20048;-60
2021/12/08 13:19:06;;;;;;;;;;;6.50;99.90;;;;;;5060597;28;20064;-59
2021/12/08 13:21:49;;;;;;;2.80;0.30;;;6.50;99.90;;;;;;5047860;28;20395;-64
2021/12/08 13:24:41;;;;;;;0.77;0.20;;;6.50;99.90;;;;;;5066380;28;20866;-66
2021/12/08 13:27:16;;;;;;;2.45;0.30;;;6.40;99.90;;;;;;5057539;28;20488;-65
2021/12/08 13:29:46;;;;;;;1.63;0.20;;;6.40;99.90;;;;;;5067719;28;20056;-63
2021/12/08 13:32:16;;;;;;;2.42;0.38;;;6.40;99.90;;;;;;5066329;28;20071;-60
2021/12/08 13:34:53;;;;;;;;;;;6.40;99.90;;;;;;5060142;28;20045;-60
2021/12/08 13:37:29;;;;;;;1.20;0.40;;;6.40;99.90;;;;;;5067282;28;20299;-63
2021/12/08 13:40:09;;;;;;;1.20;0.30;;;6.30;99.90;;;;;;5066394;28;20052;-63
2021/12/08 13:42:54;;;;;;;2.55;0.30;;;6.30;99.90;;;;;;5066504;28;20056;-60
2021/12/08 13:45:22;;;;;;;1.27;0.38;;;6.30;99.90;;;;;;5066386;28;20377;-60
2021/12/08 13:48:02;;;;;;;3.30;0.73;;;6.30;99.90;;;;;;5067490;28;20059;-59
2021/12/08 13:50:34;;;;;;;1.08;0.30;;;6.30;99.90;;;;;;5051625;28;20523;-62
2021/12/08 13:53:06;;;;;;;1.85;0.30;;;6.30;99.90;;;;;;5056086;28;20499;-62
2021/12/08 13:55:40;;;;;;;1.60;0.30;;;6.30;99.90;;;;;;5066678;28;20503;-64
2021/12/08 13:58:12;;;;;;;1.08;0.30;;;6.20;99.90;;;;;;5066987;28;20049;-72
2021/12/08 14:00:59;;;;;;;0.50;0.20;;;6.20;99.90;;;;;;5067311;28;20420;-65
2021/12/08 14:03:37;;;;;;;0.17;0.17;;;6.10;99.90;;;;;;5066745;28;20069;-68
2021/12/08 14:06:10;;;;;;;0.85;0.20;;;6.00;99.90;;;;;;5048762;28;20044;-63
2021/12/08 14:08:41;;;;;;;1.27;0.10;;;6.00;99.90;;;;;;5061550;28;20044;-63
2021/12/08 14:11:16;;;;;;;0.40;0.10;;;5.90;99.90;;;;;;5071066;28;20508;-64
2021/12/08 14:13:47;;;;;;;1.85;0.20;;;5.90;99.90;;;;;;5070336;28;20041;-63
2021/12/08 14:16:19;;;;;;;3.50;0.20;;;5.90;99.90;;;;;;5071138;28;20045;-64
2021/12/08 14:18:48;;;;;;;0.20;0.20;;;5.80;99.90;;;;;;5069146;28;20053;-66
2021/12/08 14:21:34;;;;;;;0.90;0.10;;;5.80;99.90;;;;;;5057315;28;20377;-61
2021/12/08 14:24:22;;;;;;;0.60;0.20;;;5.80;99.90;;;;;;5068875;28;20036;-61
2021/12/08 14:26:51;;;;;;;1.05;0.10;;;5.70;99.90;;;;;;5070574;28;20053;-61
2021/12/08 14:29:20;;;;;;;0.90;0.20;;;5.70;99.90;;;;;;5069120;28;20469;-62
2021/12/08 14:31:58;;;;;;;0.28;0.20;;;5.70;99.90;;;;;;5052659;28;20396;-66
2021/12/08 14:34:34;;;;;;;0.90;0.20;;;5.70;99.90;;;;;;5065493;28;20408;-60
2021/12/08 14:37:05;;;;;;;0.75;0.15;;;5.70;99.90;;;;;;5054747;28;20397;-68
2021/12/08 14:39:39;;;;;;;0.15;0.10;;;5.60;99.90;;;;;;5070268;28;20048;-68
2021/12/08 14:42:19;;;;;;;0.10;0.10;;;5.60;99.90;;;;;;5069743;28;20395;-63
2021/12/08 14:44:51;;;;;;;0.43;0.10;;;5.60;99.90;;;;;;5070627;28;20048;-69